GMMN/CMN METAR and TAF weather

Enter ICAO airport designator
Station Type Date Time Source
GMMN METAR 2018/01/19 17:30 UTC NOAA

GMMN 191730Z 32006KT 9999 BKN016 15/13 Q1024 NOSIG


Station Type Date Time Source
GMMN Decoded METAR 2018/01/19 17:30 UTC NOAA

Nouasseur, Morocco (GMMN) 33-22N 007-35W 206M
Jan 19, 2018 - 12:30 PM EST / 2018.01.19 1730 UTC
Wind: from the NW (320 degrees) at 7 MPH (6 KT):0
Visibility: greater than 7 mile(s):0
Sky conditions: mostly cloudy
Temperature: 59 F (15 C)
Dew Point: 55 F (13 C)
Relative Humidity: 87%
Pressure (altimeter): 30.24 in. Hg (1024 hPa)
ob: GMMN 191730Z 32006KT 9999 BKN016 15/13 Q1024 NOSIG
cycle: 17

Station Type Date Time Source
GMMN TAF 2018/01/19 18:21 UTC NOAA

TAF TAF GMMN 191700Z 1918/2024 32006KT 8000 BKN016 PROB30
TEMPO 2002/2007 3000 BR BKN008
BECMG 2010/2012 34010KT CAVOK


Example: see airport list